Medley, Florida
Current Conditions -  °F | °C
As of 7:53 AM on Monday 22 Dec 2014 (Local Time) from KMIA Reporting Station
Broken Clouds Broken Clouds  
Wind Chill: 72°   Ceiling: 25000
Heat Index: 72°   Visibility: 10mi
Dew Point: 67°   Wind: 6mph
Humidity: 84%   Direction: 130°SE
Pressure: 30.03"   Gusts: NA
Location:  25.8372°N, 80.3985°W
Report Text: KMIA 221253Z 13005KT 10SM FEW020 FEW140 BKN250 22/19 A3003 RMK AO2 SLP170 T02220194 $
Loading
Personal Weather Stations






























Interactive Weather Map New forecast layout! Learn more

10-Day Weather Forecast

Advertisements
Track Severe Weather on mobile